Terminal Aerodrome Forecast
Issued by NWS Grand Forks, ND

Home | Current Version | Previous Version | Graphics & Text | Print | Product List | Glossary On
Versions: 1 2 3 4 5 6 7 8 9 10 11 12 13 14 15 16 17 18 19 20 21
196
FTUS43 KFGF 061120
TAFFAR
TAF
KFAR 061120Z 0612/0712 24021G29KT 1 1/2SM -SN BLSN OVC010
     FM061500 27024G34KT 3/4SM -SN BLSN OVC015
     FM061800 29028G39KT 1/2SM -SN BLSN OVC015
     FM070000 29027G38KT 2SM BLSN OVC015=

USA.gov is the U.S. government's official web portal to all federal, state and local government web resources and services.